Time;durP1;ratioP1;P1;durP2;ratioP2;P2;SDS_P1;SDS_P2;PMS_P1;PMS_P2;Temp;Humidity;BMP_temperature;BMP_pressure;BME280_temperature;BME280_humidity;BME280_pressure;Samples;Min_cycle;Max_cycle;Signal;HPM_P1;HPM_P2
2022/08/28 00:00:48;;;;;;;9.63;4.00;;;;;;;15.96;72.34;101816.44;5048946;28;20063;-80
2022/08/28 00:03:14;;;;;;;7.70;4.30;;;;;;;15.97;72.79;101822.59;5048670;28;20033;-80
2022/08/28 00:05:40;;;;;;;10.95;4.18;;;;;;;15.89;72.55;101825.03;5049023;28;20474;-80
2022/08/28 00:08:07;;;;;;;13.45;4.72;;;;;;;15.80;72.50;101825.78;5046587;28;20090;-80
2022/08/28 00:10:33;;;;;;;17.15;5.15;;;;;;;15.73;73.14;101824.59;5047873;28;20376;-80
2022/08/28 00:12:58;;;;;;;10.98;4.75;;;;;;;15.66;73.37;101825.09;5047164;28;20028;-80
2022/08/28 00:15:36;;;;;;;11.18;4.85;;;;;;;15.71;73.46;101826.53;5048731;28;20032;-80
2022/08/28 00:18:03;;;;;;;11.02;4.70;;;;;;;15.74;73.67;101826.28;5049036;28;20032;-80
2022/08/28 00:20:29;;;;;;;11.88;4.60;;;;;;;15.69;73.66;101823.16;5049405;28;20020;-80
2022/08/28 00:22:55;;;;;;;12.98;4.80;;;;;;;15.71;73.55;101831.81;5049144;28;20053;-81
2022/08/28 00:25:23;;;;;;;10.40;4.30;;;;;;;15.66;73.85;101824.25;5048654;28;20071;-80
2022/08/28 00:27:53;;;;;;;12.25;4.97;;;;;;;15.65;74.04;101825.19;5050420;28;20029;-80
2022/08/28 00:30:47;;;;;;;12.45;4.90;;;;;;;15.64;73.76;101827.00;5047351;28;20029;-78
2022/08/28 00:33:22;;;;;;;13.10;4.82;;;;;;;15.51;74.55;101828.91;5049281;28;20032;-79
2022/08/28 00:35:49;;;;;;;14.23;4.93;;;;;;;15.40;75.10;101834.22;5048285;28;20762;-79
2022/08/28 00:38:18;;;;;;;11.40;5.07;;;;;;;15.36;75.33;101822.16;5048053;28;20166;-80
2022/08/28 00:40:45;;;;;;;13.23;4.35;;;;;;;15.44;75.49;101834.81;5049912;28;20029;-78
2022/08/28 00:43:32;;;;;;;11.05;4.57;;;;;;;15.43;75.12;101831.31;5048652;28;20084;-78
2022/08/28 00:45:58;;;;;;;12.55;5.25;;;;;;;15.32;75.78;101831.31;5047773;28;20041;-81
2022/08/28 00:48:23;;;;;;;14.23;5.18;;;;;;;15.37;75.75;101831.81;5045636;28;20064;-81
2022/08/28 00:53:33;;;;;;;10.73;4.90;;;;;;;15.25;76.16;101827.47;5036743;28;20093;-79
2022/08/28 00:56:01;;;;;;;10.60;5.05;;;;;;;15.21;76.44;101834.81;5047538;28;20059;-80
2022/08/28 00:58:27;;;;;;;12.73;4.82;;;;;;;15.10;76.68;101837.44;5047597;28;20470;-80
2022/08/28 01:00:53;;;;;;;14.88;5.50;;;;;;;15.04;77.06;101837.91;5048118;28;20031;-81
2022/08/28 01:03:18;;;;;;;12.77;5.13;;;;;;;14.95;77.49;101836.81;5048052;28;20024;-80
2022/08/28 01:05:46;;;;;;;15.07;5.72;;;;;;;14.96;77.48;101845.59;5043573;28;20071;-81
2022/08/28 01:08:12;;;;;;;17.23;6.10;;;;;;;15.00;77.74;101847.91;5047520;28;20378;-80
2022/08/28 01:10:39;;;;;;;12.60;5.70;;;;;;;15.01;77.74;101851.41;5047889;28;20025;-80
2022/08/28 01:13:05;;;;;;;16.38;5.88;;;;;;;14.92;78.07;101852.09;5047702;28;20029;-79
2022/08/28 01:15:34;;;;;;;14.70;5.55;;;;;;;14.80;78.48;101853.88;5048403;28;20151;-81
2022/08/28 01:18:04;;;;;;;14.50;5.60;;;;;;;14.72;78.67;101854.44;5046898;28;20025;-79
2022/08/28 01:20:32;;;;;;;18.92;5.57;;;;;;;14.64;79.31;101850.69;5046695;28;20084;-78
2022/08/28 01:23:06;;;;;;;12.57;4.97;;;;;;;14.71;79.11;101847.47;5045934;28;20029;-81
2022/08/28 01:25:35;;;;;;;11.43;5.45;;;;;;;14.62;79.68;101847.31;5047071;28;20025;-78
2022/08/28 01:28:04;;;;;;;13.88;5.53;;;;;;;14.53;79.94;101848.00;5045970;28;20067;-78
2022/08/28 01:30:31;;;;;;;16.60;6.05;;;;;;;14.43;80.39;101847.00;5047954;28;20078;-78
2022/08/28 01:32:59;;;;;;;13.48;6.15;;;;;;;14.37;81.03;101853.53;5045960;28;20021;-79
2022/08/28 01:35:30;;;;;;;11.90;5.93;;;;;;;14.31;81.31;101854.84;5049059;28;20037;-79
2022/08/28 01:37:56;;;;;;;13.75;5.63;;;;;;;14.30;81.62;101858.44;5047684;28;20151;-79
2022/08/28 01:40:56;;;;;;;15.93;6.18;;;;;;;14.33;81.17;101860.03;5048281;28;20475;-80
2022/08/28 01:43:25;;;;;;;16.27;6.18;;;;;;;14.26;82.02;101862.28;5082534;28;20028;-81
2022/08/28 01:45:54;;;;;;;13.00;5.60;;;;;;;14.22;82.10;101865.28;5046806;28;20041;-80
2022/08/28 01:48:23;;;;;;;20.38;6.57;;;;;;;14.22;82.70;101866.13;5048820;28;20036;-79
2022/08/28 01:50:49;;;;;;;14.95;6.05;;;;;;;14.25;82.99;101865.88;5049052;28;20029;-79
2022/08/28 01:53:22;;;;;;;16.60;6.13;;;;;;;14.31;82.48;101867.25;5045650;28;20029;-80
2022/08/28 01:55:49;;;;;;;14.20;6.00;;;;;;;14.32;82.63;101868.94;5046632;28;20111;-80
2022/08/28 01:58:16;;;;;;;17.50;6.07;;;;;;;14.35;82.69;101868.69;5083210;28;20068;-79
2022/08/28 02:00:41;;;;;;;16.45;5.80;;;;;;;14.36;82.82;101868.59;5083377;28;20020;-81
2022/08/28 02:03:07;;;;;;;17.13;6.30;;;;;;;14.41;82.45;101871.78;5082974;28;20031;-81
2022/08/28 02:05:34;;;;;;;16.25;6.70;;;;;;;14.39;82.98;101867.50;5050878;28;20017;-79
2022/08/28 02:08:01;;;;;;;16.80;5.97;;;;;;;14.40;82.95;101870.03;5050315;28;20045;-79
2022/08/28 02:10:31;;;;;;;12.75;5.47;;;;;;;14.40;83.46;101869.19;5051341;28;20032;-79
2022/08/28 02:12:58;;;;;;;12.30;6.45;;;;;;;14.35;82.91;101872.19;5049333;28;20029;-79
2022/08/28 02:15:24;;;;;;;13.55;5.97;;;;;;;14.33;83.02;101868.81;5049373;28;20025;-79
2022/08/28 02:17:50;;;;;;;16.10;7.35;;;;;;;14.34;83.18;101880.25;5050231;28;20036;-79
2022/08/28 02:20:16;;;;;;;16.83;6.13;;;;;;;14.30;83.46;101874.34;5049634;28;20079;-79
2022/08/28 02:22:42;;;;;;;15.18;6.30;;;;;;;14.29;83.36;101880.59;5050624;28;20036;-79
2022/08/28 02:25:08;;;;;;;15.82;6.13;;;;;;;14.28;83.26;101878.06;5048850;28;20020;-79
2022/08/28 02:27:34;;;;;;;15.57;6.32;;;;;;;14.22;83.66;101876.69;5051101;28;20032;-78
2022/08/28 02:29:59;;;;;;;16.65;6.55;;;;;;;14.12;84.14;101878.34;5048380;28;20025;-78
2022/08/28 02:32:25;;;;;;;13.00;5.32;;;;;;;14.21;84.17;101880.31;5049651;28;20167;-78
2022/08/28 02:34:54;;;;;;;12.55;6.53;;;;;;;14.11;84.40;101882.78;5051100;28;20474;-78
2022/08/28 02:37:20;;;;;;;14.02;6.55;;;;;;;14.07;84.68;101877.81;5048779;28;20025;-79
2022/08/28 02:39:46;;;;;;;16.05;5.90;;;;;;;14.07;84.53;101888.41;5051310;28;20044;-79
2022/08/28 02:42:12;;;;;;;16.60;6.63;;;;;;;14.06;84.73;101886.72;5049605;28;20025;-79
2022/08/28 02:44:37;;;;;;;16.33;6.05;;;;;;;13.99;85.08;101885.44;5050142;28;20467;-78
2022/08/28 02:47:03;;;;;;;19.63;6.43;;;;;;;13.96;85.08;101883.88;5049896;28;20096;-78
2022/08/28 02:49:30;;;;;;;15.88;5.97;;;;;;;13.89;84.90;101887.06;5083353;28;20055;-78
2022/08/28 02:51:59;;;;;;;15.88;6.28;;;;;;;13.88;84.86;101882.72;5050420;28;20623;-78
2022/08/28 02:54:25;;;;;;;11.77;6.10;;;;;;;13.80;85.07;101878.00;5051340;28;20028;-78
2022/08/28 02:56:50;;;;;;;14.25;5.70;;;;;;;13.77;85.36;101881.69;5050133;28;20029;-79
2022/08/28 02:59:16;;;;;;;13.35;5.68;;;;;;;13.76;85.11;101874.72;5051372;28;20327;-78
2022/08/28 03:01:41;;;;;;;13.15;6.00;;;;;;;13.72;85.31;101881.19;5049229;28;20500;-77
2022/08/28 03:04:06;;;;;;;13.05;5.53;;;;;;;13.68;85.77;101881.50;5049862;28;20091;-78
2022/08/28 03:06:32;;;;;;;12.43;6.00;;;;;;;13.68;85.97;101879.72;5051553;28;20035;-78
2022/08/28 03:08:58;;;;;;;12.45;5.95;;;;;;;13.61;85.73;101885.50;5049496;28;20478;-78
2022/08/28 03:11:24;;;;;;;13.77;5.88;;;;;;;13.59;85.54;101882.97;5050456;28;20025;-77
2022/08/28 03:13:49;;;;;;;15.35;6.07;;;;;;;13.52;86.04;101879.06;5051344;28;20489;-78
2022/08/28 03:16:15;;;;;;;13.43;5.95;;;;;;;13.55;85.90;101883.31;5049687;28;20037;-78
2022/08/28 03:18:40;;;;;;;13.05;6.38;;;;;;;13.45;86.16;101886.59;5047860;28;20047;-78
2022/08/28 03:21:06;;;;;;;12.18;5.93;;;;;;;13.44;86.49;101889.34;5046653;28;20100;-78
2022/08/28 03:23:32;;;;;;;14.90;6.03;;;;;;;13.38;86.71;101885.34;5029777;28;20383;-78
2022/08/28 03:26:00;;;;;;;11.88;5.60;;;;;;;13.38;86.77;101895.06;5033051;28;20113;-78
2022/08/28 03:28:34;;;;;;;13.25;6.10;;;;;;;13.34;87.06;101905.00;5050071;28;20475;-80
2022/08/28 03:31:00;;;;;;;13.25;6.57;;;;;;;13.29;87.37;101900.97;5041493;28;20061;-80
2022/08/28 03:33:26;;;;;;;11.82;6.25;;;;;;;13.28;87.17;101899.28;5047840;28;20106;-79
2022/08/28 03:35:54;;;;;;;10.15;6.03;;;;;;;13.36;86.99;101899.59;5081921;28;20032;-79
2022/08/28 03:38:21;;;;;;;12.18;6.15;;;;;;;13.21;87.80;101906.81;5046916;28;20028;-78
2022/08/28 03:40:47;;;;;;;11.43;5.85;;;;;;;13.19;87.81;101908.66;5081254;28;20041;-78
2022/08/28 03:43:17;;;;;;;10.82;5.90;;;;;;;13.23;87.65;101911.97;5047706;28;20484;-79
2022/08/28 03:46:01;;;;;;;12.13;5.95;;;;;;;13.23;87.69;101911.97;5047776;28;20337;-80
2022/08/28 03:48:28;;;;;;;14.68;6.70;;;;;;;13.11;88.34;101911.81;5049636;28;20116;-80
2022/08/28 03:50:54;;;;;;;12.93;5.95;;;;;;;13.17;87.89;101908.78;5049315;28;20100;-80
2022/08/28 03:53:21;;;;;;;13.48;6.40;;;;;;;13.14;88.14;101913.38;5046909;28;20112;-80
2022/08/28 03:55:47;;;;;;;13.55;6.03;;;;;;;13.09;88.12;101911.06;5047206;28;20475;-80
2022/08/28 03:58:13;;;;;;;11.68;6.53;;;;;;;13.07;88.30;101917.41;5047474;28;20041;-80
2022/08/28 04:00:39;;;;;;;15.75;6.45;;;;;;;13.09;88.47;101915.50;5048688;28;20021;-80
2022/08/28 04:03:05;;;;;;;12.88;6.38;;;;;;;13.11;88.18;101913.59;5046064;28;20033;-80
2022/08/28 04:05:30;;;;;;;12.43;6.20;;;;;;;13.05;88.46;101914.88;5047647;28;20021;-80
2022/08/28 04:07:59;;;;;;;12.13;6.40;;;;;;;13.04;88.33;101917.63;5048234;28;20052;-80
2022/08/28 04:10:24;;;;;;;13.57;6.38;;;;;;;12.98;88.45;101918.03;5047333;28;20554;-83
2022/08/28 04:12:50;;;;;;;14.95;6.55;;;;;;;12.98;88.47;101918.88;5048122;28;20112;-80
2022/08/28 04:15:15;;;;;;;16.05;6.45;;;;;;;12.92;88.33;101914.00;5046728;28;20463;-78
2022/08/28 04:17:41;;;;;;;11.73;6.15;;;;;;;12.97;88.58;101911.91;5049482;28;20044;-78
2022/08/28 04:20:08;;;;;;;12.50;6.28;;;;;;;12.92;88.36;101915.81;5048359;28;20052;-78
2022/08/28 04:22:34;;;;;;;10.32;6.38;;;;;;;12.90;88.34;101909.78;5046692;28;20020;-78
2022/08/28 04:24:59;;;;;;;13.00;6.53;;;;;;;12.83;88.90;101910.19;5049507;28;20415;-78
2022/08/28 04:27:25;;;;;;;13.25;6.28;;;;;;;12.83;88.88;101914.63;5045667;28;20036;-78
2022/08/28 04:29:50;;;;;;;12.98;6.68;;;;;;;12.79;88.69;101918.38;5046267;28;20116;-78
2022/08/28 04:32:15;;;;;;;8.35;5.93;;;;;;;12.81;88.85;101921.81;5048264;28;20028;-78
2022/08/28 04:34:41;;;;;;;16.65;6.72;;;;;;;12.73;89.57;101926.72;5047682;28;20029;-78
2022/08/28 04:37:06;;;;;;;12.90;6.70;;;;;;;12.76;89.27;101929.16;5047909;28;20032;-79
2022/08/28 04:39:32;;;;;;;14.48;6.55;;;;;;;12.67;90.07;101924.47;5048260;28;20398;-79
2022/08/28 04:41:57;;;;;;;14.70;6.40;;;;;;;12.71;89.62;101928.63;5045607;28;20162;-79
2022/08/28 04:44:23;;;;;;;11.15;6.32;;;;;;;12.69;89.74;101930.50;5045764;28;20485;-78
2022/08/28 04:46:48;;;;;;;13.10;6.57;;;;;;;12.63;90.10;101929.13;5048611;28;20433;-78
2022/08/28 04:49:14;;;;;;;12.45;6.13;;;;;;;12.62;90.22;101934.50;5047271;28;20072;-78
2022/08/28 04:51:40;;;;;;;13.05;6.40;;;;;;;12.53;90.74;101928.88;5047852;28;20423;-78
2022/08/28 04:54:06;;;;;;;13.95;6.68;;;;;;;12.51;90.60;101936.06;5047981;28;20032;-78
2022/08/28 04:56:32;;;;;;;15.68;6.70;;;;;;;12.49;91.50;101937.09;5047814;28;20024;-78
2022/08/28 04:58:59;;;;;;;12.90;6.55;;;;;;;12.46;91.34;101935.50;5047770;28;20103;-79
2022/08/28 05:01:25;;;;;;;12.35;6.80;;;;;;;12.46;91.24;101932.88;5048535;28;20029;-78
2022/08/28 05:03:56;;;;;;;15.43;6.75;;;;;;;12.41;91.90;101940.25;5037744;28;20375;-79
2022/08/28 05:06:25;;;;;;;10.73;6.38;;;;;;;12.46;91.52;101938.16;5060070;28;20029;-78
2022/08/28 05:08:50;;;;;;;13.13;6.55;;;;;;;12.41;91.43;101945.50;5048513;28;20446;-78
2022/08/28 05:11:20;;;;;;;11.40;6.20;;;;;;;12.42;91.42;101952.50;5047279;28;20080;-78
2022/08/28 05:13:48;;;;;;;12.25;6.05;;;;;;;12.43;91.71;101948.06;5046844;28;20121;-78
2022/08/28 05:16:15;;;;;;;13.48;7.00;;;;;;;12.35;91.72;101945.88;5047685;28;20025;-77
2022/08/28 05:18:41;;;;;;;10.88;6.20;;;;;;;12.43;91.65;101954.19;5048161;28;20108;-81
2022/08/28 05:21:19;;;;;;;12.88;6.47;;;;;;;12.42;91.94;101955.13;5047468;28;20020;-82
2022/08/28 05:23:45;;;;;;;13.25;6.57;;;;;;;12.40;91.68;101959.63;5047488;28;20029;-81
2022/08/28 05:26:12;;;;;;;14.20;6.20;;;;;;;12.40;91.80;101967.53;5046754;28;20024;-81
2022/08/28 05:28:38;;;;;;;12.50;6.47;;;;;;;12.40;92.08;101957.00;5048945;28;20029;-80
2022/08/28 05:31:30;;;;;;;10.05;6.40;;;;;;;12.50;91.54;101963.41;5046375;28;20036;-79
2022/08/28 05:33:58;;;;;;;13.77;6.75;;;;;;;12.50;91.63;101962.56;5044645;28;20029;-80
2022/08/28 05:36:23;;;;;;;12.00;6.30;;;;;;;12.52;92.04;101964.16;5048508;28;20017;-81
2022/08/28 05:38:50;;;;;;;9.88;6.15;;;;;;;12.48;92.08;101973.22;5046560;28;20040;-81
2022/08/28 05:41:21;;;;;;;11.90;6.65;;;;;;;12.42;92.50;101973.59;5046667;28;20383;-80
2022/08/28 05:43:47;;;;;;;18.30;7.22;;;;;;;12.38;93.22;101966.78;5046727;28;20041;-81
2022/08/28 05:46:14;;;;;;;13.63;7.13;;;;;;;12.41;93.28;101971.06;5045800;28;20384;-81
2022/08/28 05:48:41;;;;;;;13.38;6.90;;;;;;;12.46;93.55;101969.81;5046691;28;20433;-81
2022/08/28 05:51:14;;;;;;;13.82;7.03;;;;;;;12.50;93.39;101976.59;5047249;28;20017;-81
2022/08/28 05:53:41;;;;;;;12.90;7.22;;;;;;;12.58;93.98;101977.88;5047610;28;20025;-82
2022/08/28 05:56:08;;;;;;;12.70;6.60;;;;;;;12.71;94.00;101976.16;5047526;28;20037;-81
2022/08/28 05:58:34;;;;;;;15.80;7.47;;;;;;;12.66;93.90;101970.31;5048867;28;20387;-81
2022/08/28 06:01:05;;;;;;;16.13;7.47;;;;;;;12.79;93.81;101976.50;5046972;28;20014;-80
2022/08/28 06:03:31;;;;;;;13.77;7.22;;;;;;;12.82;93.82;101977.16;5048419;28;20037;-80
2022/08/28 06:05:58;;;;;;;15.35;6.95;;;;;;;12.85;93.66;101984.03;5047893;28;20021;-80
2022/08/28 06:08:24;;;;;;;17.95;7.10;;;;;;;12.87;93.62;101984.78;5047302;28;20102;-80
2022/08/28 06:10:49;;;;;;;13.60;6.78;;;;;;;12.99;94.13;101989.25;5048301;28;20040;-80
2022/08/28 06:13:14;;;;;;;16.58;6.80;;;;;;;13.00;93.69;101993.59;5045650;28;20116;-80
2022/08/28 06:15:42;;;;;;;15.73;6.32;;;;;;;13.11;93.95;101987.59;5047950;28;20028;-80
2022/08/28 06:18:07;;;;;;;13.13;6.18;;;;;;;13.16;93.67;101986.34;5047519;28;20075;-81
2022/08/28 06:20:42;;;;;;;18.77;6.95;;;;;;;13.23;93.30;101983.34;5046812;28;20025;-81
2022/08/28 06:23:10;;;;;;;16.70;5.97;;;;;;;13.33;93.08;101987.06;5045303;28;20052;-81
2022/08/28 06:25:40;;;;;;;19.75;6.53;;;;;;;13.40;92.32;101990.97;5047943;28;20032;-82
2022/08/28 06:28:06;;;;;;;13.88;6.28;;;;;;;13.48;92.35;101986.84;5047915;28;20033;-81
2022/08/28 06:30:34;;;;;;;16.15;6.72;;;;;;;13.54;91.64;101995.31;5047335;28;20510;-81
2022/08/28 06:32:59;;;;;;;14.10;6.07;;;;;;;13.61;91.54;101991.28;5048636;28;20390;-81
2022/08/28 06:35:24;;;;;;;16.15;6.40;;;;;;;13.66;90.90;101994.50;5047104;28;20029;-81
2022/08/28 06:37:50;;;;;;;12.63;5.88;;;;;;;13.79;90.94;101988.25;5047000;28;20032;-81
2022/08/28 06:40:15;;;;;;;16.38;6.50;;;;;;;13.85;89.75;101996.72;5045342;28;20039;-81
2022/08/28 06:42:41;;;;;;;13.70;6.88;;;;;;;13.95;89.61;102001.25;5047436;28;20493;-80
2022/08/28 06:45:06;;;;;;;17.00;6.50;;;;;;;14.03;89.75;101998.94;5051783;28;20558;-80
2022/08/28 06:47:32;;;;;;;15.55;6.88;;;;;;;14.09;88.83;102002.94;5051580;28;20036;-81
2022/08/28 06:49:57;;;;;;;14.30;5.88;;;;;;;14.17;88.11;102000.59;5049500;28;20505;-81
2022/08/28 06:52:22;;;;;;;11.45;5.30;;;;;;;14.26;87.21;101994.66;5049559;28;20025;-81
2022/08/28 06:54:48;;;;;;;11.35;5.53;;;;;;;14.39;87.04;102003.41;5050788;28;20036;-81
2022/08/28 06:57:13;;;;;;;17.25;5.68;;;;;;;14.50;86.08;101994.75;5049639;28;20021;-81
2022/08/28 06:59:39;;;;;;;12.48;4.97;;;;;;;14.61;85.71;102000.09;5050227;28;20094;-81
2022/08/28 07:02:05;;;;;;;14.13;5.60;;;;;;;14.77;85.65;101998.97;5048965;28;20025;-80
2022/08/28 07:04:30;;;;;;;11.27;4.70;;;;;;;14.95;84.68;102003.78;5049872;28;20035;-81
2022/08/28 07:06:57;;;;;;;12.00;4.82;;;;;;;15.12;83.18;101999.03;5048990;28;20135;-83
2022/08/28 07:09:23;;;;;;;12.40;4.85;;;;;;;15.30;83.03;102008.25;5049594;28;20021;-81
2022/08/28 07:11:49;;;;;;;13.60;4.60;;;;;;;15.44;81.61;102000.09;5050314;28;20028;-81
2022/08/28 07:14:15;;;;;;;12.70;4.70;;;;;;;15.62;81.12;101998.75;5047261;28;20124;-82
2022/08/28 07:16:41;;;;;;;11.38;4.55;;;;;;;15.79;79.95;101997.44;5049333;28;20110;-82
2022/08/28 07:19:08;;;;;;;13.23;4.22;;;;;;;15.93;78.64;101991.03;5048692;28;20028;-81
2022/08/28 07:21:35;;;;;;;11.23;4.70;;;;;;;16.14;78.17;101999.13;5050605;28;20020;-81
2022/08/28 07:24:02;;;;;;;15.82;4.82;;;;;;;16.30;77.65;102003.09;5048873;28;20025;-81
2022/08/28 07:26:27;;;;;;;11.27;4.40;;;;;;;16.46;76.56;102008.06;5046594;28;20032;-81
2022/08/28 07:28:53;;;;;;;13.25;4.07;;;;;;;16.61;75.50;102000.66;5048139;28;20021;-82
2022/08/28 07:31:22;;;;;;;14.82;4.07;;;;;;;16.76;74.88;102009.22;5050208;28;20053;-81
2022/08/28 07:33:48;;;;;;;12.70;3.67;;;;;;;16.96;73.61;102007.59;5030342;28;20021;-81
2022/08/28 07:36:17;;;;;;;9.65;4.03;;;;;;;17.08;72.53;102019.88;5048024;28;20440;-83
2022/08/28 07:38:43;;;;;;;12.45;4.00;;;;;;;17.22;72.70;102016.94;5046013;28;20032;-81
2022/08/28 07:41:16;;;;;;;10.55;3.60;;;;;;;17.40;72.17;102015.38;5051114;28;20395;-81
2022/08/28 07:46:26;;;;;;;11.85;4.15;;;;;;;17.72;70.28;102019.81;5048024;28;20314;-81
2022/08/28 07:48:52;;;;;;;11.63;3.65;;;;;;;17.85;68.66;102020.44;5050110;28;20025;-81
2022/08/28 07:51:18;;;;;;;10.45;3.47;;;;;;;17.93;67.76;102020.63;5049569;28;20040;-81
2022/08/28 07:53:43;;;;;;;7.95;4.00;;;;;;;18.15;67.96;102012.47;5047476;28;20021;-82
2022/08/28 07:56:10;;;;;;;12.02;3.75;;;;;;;18.24;66.96;102015.31;5048843;28;20104;-81
2022/08/28 07:58:36;;;;;;;8.73;2.90;;;;;;;18.23;66.18;102013.63;5047294;28;20028;-82
2022/08/28 08:01:02;;;;;;;11.80;3.67;;;;;;;18.32;66.61;102021.63;5049182;28;20108;-81
2022/08/28 08:03:29;;;;;;;14.48;3.25;;;;;;;18.39;64.58;102012.13;5050352;28;20131;-82
2022/08/28 08:06:01;;;;;;;9.63;3.05;;;;;;;18.40;65.72;102021.81;5046559;28;20025;-82
2022/08/28 08:08:28;;;;;;;9.38;3.20;;;;;;;18.31;65.18;102024.44;5050289;28;20029;-82
2022/08/28 08:10:58;;;;;;;11.52;3.38;;;;;;;18.36;65.54;102032.88;5049527;28;20427;-79
2022/08/28 08:13:23;;;;;;;11.45;2.92;;;;;;;18.27;65.50;102029.19;5047992;28;20098;-81
2022/08/28 08:15:49;;;;;;;8.23;2.95;;;;;;;18.19;65.69;102026.38;5048893;28;20025;-82
2022/08/28 08:18:15;;;;;;;8.20;3.08;;;;;;;18.46;65.51;102025.78;5049207;28;20021;-80
2022/08/28 08:20:41;;;;;;;14.57;3.42;;;;;;;18.76;64.39;102030.19;5046008;28;20355;-81
2022/08/28 08:23:06;;;;;;;10.50;2.80;;;;;;;18.94;62.55;102027.72;5044820;28;20041;-81
2022/08/28 08:25:32;;;;;;;9.15;2.90;;;;;;;18.87;62.23;102026.59;5045717;28;20024;-81
2022/08/28 08:27:57;;;;;;;7.95;2.60;;;;;;;18.86;62.30;102024.91;5046854;28;20104;-81
2022/08/28 08:30:22;;;;;;;8.38;2.78;;;;;;;19.06;62.36;102029.25;5046575;28;20021;-81
2022/08/28 08:32:49;;;;;;;10.10;2.50;;;;;;;19.01;61.35;102034.19;5049682;28;20475;-81
2022/08/28 08:35:16;;;;;;;7.50;2.30;;;;;;;19.07;62.00;102037.13;5047443;28;20109;-82
2022/08/28 08:37:41;;;;;;;5.35;2.08;;;;;;;19.15;60.18;102043.59;5048903;28;20298;-81
2022/08/28 08:40:10;;;;;;;9.02;2.45;;;;;;;19.14;59.17;102037.41;5048640;28;20531;-80
2022/08/28 08:42:37;;;;;;;9.07;2.30;;;;;;;19.18;60.31;102036.13;5049569;28;20037;-81
2022/08/28 08:45:04;;;;;;;7.03;2.33;;;;;;;19.12;60.24;102044.72;5049761;28;20044;-81
2022/08/28 08:47:37;;;;;;;9.68;2.30;;;;;;;18.90;60.18;102034.31;5049139;28;20032;-81
2022/08/28 08:50:12;;;;;;;14.85;2.42;;;;;;;18.69;60.40;102035.25;5048665;28;20052;-81
2022/08/28 08:52:55;;;;;;;7.22;2.30;;;;;;;18.64;60.16;102037.47;5049361;28;20079;-81
2022/08/28 08:55:36;;;;;;;7.93;2.50;;;;;;;18.97;60.25;102032.78;5047151;28;20040;-82
2022/08/28 08:58:11;;;;;;;8.45;3.20;;;;;;;19.09;59.71;102034.31;5046964;28;20540;-81
2022/08/28 09:00:47;;;;;;;9.95;2.72;;;;;;;19.03;59.97;102021.53;5081600;28;20071;-81
2022/08/28 09:03:17;;;;;;;7.43;2.50;;;;;;;19.10;59.00;102028.00;5079933;28;20029;-80
2022/08/28 09:06:01;;;;;;;8.07;2.45;;;;;;;19.06;59.81;102029.25;5047270;28;20032;-81
2022/08/28 09:08:34;;;;;;;7.53;2.15;;;;;;;19.25;58.62;102026.63;5047606;28;20028;-81
2022/08/28 09:11:25;;;;;;;;;;;;;;;19.51;59.70;102026.00;5048289;28;20017;-81
2022/08/28 09:14:01;;;;;;;6.30;2.00;;;;;;;19.67;56.34;102032.50;5041196;28;20374;-80
2022/08/28 09:16:37;;;;;;;5.90;2.25;;;;;;;19.78;55.93;102033.31;5048348;28;20028;-80
2022/08/28 09:19:04;;;;;;;8.25;2.13;;;;;;;19.91;56.05;102037.34;5080110;28;20070;-80
2022/08/28 09:21:32;;;;;;;6.63;2.10;;;;;;;20.05;55.56;102029.88;5047536;28;20013;-82
2022/08/28 09:24:01;;;;;;;6.07;2.17;;;;;;;20.25;54.57;102028.78;5046272;28;20151;-81
2022/08/28 09:26:27;;;;;;;7.13;2.00;;;;;;;20.32;54.78;102025.38;5048827;28;20048;-81
2022/08/28 09:29:13;;;;;;;7.88;2.30;;;;;;;20.57;55.10;102037.25;5048559;28;20100;-80
2022/08/28 09:31:40;;;;;;;6.53;2.10;;;;;;;20.38;53.29;102023.94;5047390;28;20379;-80
2022/08/28 09:34:17;;;;;;;5.10;2.08;;;;;;;20.23;54.37;102023.59;5048318;28;20158;-80
2022/08/28 09:36:42;;;;;;;7.00;2.00;;;;;;;20.22;53.45;102015.72;5049089;28;20034;-80
2022/08/28 09:39:24;;;;;;;5.82;2.00;;;;;;;20.47;55.14;102025.75;5048234;28;20528;-80
2022/08/28 09:44:52;;;;;;;10.45;2.00;;;;;;;20.93;54.36;102023.91;5048849;28;20346;-81
2022/08/28 09:47:33;;;;;;;7.72;2.00;;;;;;;21.09;53.37;102026.75;5080032;28;20123;-81
2022/08/28 09:50:19;;;;;;;8.27;2.20;;;;;;;21.16;53.18;102026.97;5047708;28;20079;-81
2022/08/28 09:52:45;;;;;;;4.50;1.80;;;;;;;21.22;52.78;102023.69;5047527;28;20733;-81
2022/08/28 09:55:24;;;;;;;6.10;1.85;;;;;;;21.24;51.34;102035.97;5049047;28;20027;-81
2022/08/28 09:57:49;;;;;;;5.78;2.03;;;;;;;21.15;50.75;102018.09;5048525;28;20075;-80
2022/08/28 10:00:15;;;;;;;8.57;1.90;;;;;;;21.18;50.18;102020.47;5048214;28;20036;-80
2022/08/28 10:02:54;;;;;;;5.25;1.75;;;;;;;21.33;50.23;102036.03;5047290;28;20026;-80
2022/08/28 10:05:47;;;;;;;7.32;2.10;;;;;;;21.53;50.63;102026.78;5039941;28;20025;-80
2022/08/28 10:08:26;;;;;;;5.57;2.00;;;;;;;21.50;50.45;102032.47;5042320;28;20418;-81
2022/08/28 10:11:01;;;;;;;6.40;1.80;;;;;;;21.80;50.16;102034.69;5028112;28;20098;-81
2022/08/28 10:13:38;;;;;;;8.55;2.00;;;;;;;21.85;48.99;102034.22;5026555;28;20026;-81
2022/08/28 10:16:31;;;;;;;4.35;2.00;;;;;;;21.93;50.08;102036.94;5027792;28;20026;-81
2022/08/28 10:19:14;;;;;;;4.18;2.03;;;;;;;21.79;49.73;102030.34;5031347;28;20112;-80
2022/08/28 10:21:40;;;;;;;6.53;1.85;;;;;;;21.48;49.81;102034.47;5049971;28;20017;-80
2022/08/28 10:24:34;;;;;;;6.45;1.92;;;;;;;21.30;50.86;102022.94;5050178;28;20064;-80
2022/08/28 10:27:18;;;;;;;5.30;1.92;;;;;;;21.10;51.48;102028.41;5051271;28;20108;-81
2022/08/28 10:29:57;;;;;;;7.13;1.80;;;;;;;20.89;51.94;102025.22;5051767;28;20505;-81
2022/08/28 10:32:51;;;;;;;4.38;1.80;;;;;;;20.81;52.11;102027.78;5050387;28;20090;-80
2022/08/28 10:35:24;;;;;;;5.55;2.05;;;;;;;20.64;51.09;102026.78;5047840;28;20176;-80
2022/08/28 10:38:15;;;;;;;5.00;1.73;;;;;;;20.82;51.52;102019.63;5049880;28;20051;-80
2022/08/28 10:40:52;;;;;;;6.43;2.20;;;;;;;21.31;51.34;102024.63;5083211;28;20033;-80
2022/08/28 10:43:27;;;;;;;7.40;2.00;;;;;;;21.51;49.87;102032.31;5051563;28;20114;-80
2022/08/28 10:45:53;;;;;;;3.35;1.50;;;;;;;21.80;49.64;102023.97;5051009;28;20045;-80
2022/08/28 10:48:31;;;;;;;5.50;1.73;;;;;;;21.97;48.16;102021.38;5051777;28;20052;-80
2022/08/28 10:51:05;;;;;;;5.03;2.00;;;;;;;22.07;47.57;102016.81;5084156;28;20028;-80
2022/08/28 10:53:37;;;;;;;5.95;1.83;;;;;;;22.22;46.93;102030.44;5051070;28;20028;-78
2022/08/28 10:56:16;;;;;;;6.25;1.90;;;;;;;22.52;47.66;102011.13;5051461;28;20025;-79
2022/08/28 10:58:47;;;;;;;4.60;2.03;;;;;;;22.25;48.05;102022.91;5052228;28;20029;-79
2022/08/28 11:01:37;;;;;;;5.00;2.03;;;;;;;22.24;48.95;102023.91;5051887;28;20108;-80
2022/08/28 11:04:18;;;;;;;7.10;1.98;;;;;;;22.04;50.14;102026.00;5049713;28;20167;-80
2022/08/28 11:06:49;;;;;;;7.57;2.00;;;;;;;21.95;49.01;102031.44;5050717;28;20032;-80
2022/08/28 11:09:37;;;;;;;6.45;2.22;;;;;;;21.85;49.76;102023.50;5048625;28;20080;-80
2022/08/28 11:12:34;;;;;;;6.05;1.83;;;;;;;21.92;50.46;102029.06;5039493;28;20049;-80
2022/08/28 11:15:25;;;;;;;7.97;1.80;;;;;;;21.98;49.68;102031.09;5029270;28;20021;-80
2022/08/28 11:17:58;;;;;;;7.80;2.25;;;;;;;22.19;48.63;102018.19;5050267;28;20535;-79
2022/08/28 11:20:28;;;;;;;8.32;2.00;;;;;;;22.33;47.17;102025.63;5050756;28;20433;-80
2022/08/28 11:23:11;;;;;;;7.03;1.92;;;;;;;22.56;46.38;102015.16;5048122;28;20025;-80
2022/08/28 11:25:42;;;;;;;7.65;1.77;;;;;;;22.96;46.98;102014.44;5048150;28;20103;-80
2022/08/28 11:28:23;;;;;;;7.40;1.75;;;;;;;23.13;45.74;102015.28;5048158;28;20021;-80
2022/08/28 11:31:11;;;;;;;5.57;1.70;;;;;;;23.62;46.22;102020.69;5048575;28;20167;-80
2022/08/28 11:33:42;;;;;;;5.45;1.55;;;;;;;23.39;44.92;102023.16;5042413;28;20468;-80
2022/08/28 11:36:09;;;;;;;5.00;1.80;;;;;;;23.03;45.79;102018.13;5048592;28;20178;-80
2022/08/28 11:38:41;;;;;;;5.53;2.10;;;;;;;22.85;46.00;102016.59;5048632;28;20476;-80